Terminal Aerodrome Forecast
Issued by NWS

Home | Current Version | Previous Version | Text Only | Print | Product List | Glossary On
Versions: 1 2 3 4 5 6 7 8 9 10 11 12 13 14 15 16 17 18 19 20 21 22 23 24 25 26 27 28 29 30
000
FTUS46 KMTR 262015 AAB
TAFMRY
TAF AMD
KMRY 262015Z 2620/2718 29007KT 6SM HZ FU SCT035 OVC050
     FM270300 24004KT 5SM HZ FU BKN004 OVC050
     FM270700 VRB03KT 4SM BR FU OVC003
     FM270900 VRB02KT 3SM BR FU OVC002
     FM271100 00000KT 1/2SM FG FU VV002
     FM271500 VRB03KT 3SM HZ FU OVC003=

USA.gov is the U.S. government's official web portal to all federal, state and local government web resources and services.